createdAt,value
2023-03-29T00:02:42.089Z,-1.10
2023-03-29T00:05:51.327Z,-1.10
2023-03-29T00:08:59.482Z,-1.18
2023-03-29T00:12:07.969Z,-1.20
2023-03-29T00:15:16.739Z,-1.20
2023-03-29T00:18:24.832Z,-1.20
2023-03-29T00:21:33.161Z,-1.20
2023-03-29T00:24:41.413Z,-1.20
2023-03-29T00:27:49.389Z,-1.24
2023-03-29T00:31:05.249Z,-1.30
2023-03-29T00:34:13.762Z,-1.30
2023-03-29T00:37:22.825Z,-1.30
2023-03-29T00:40:30.820Z,-1.30
2023-03-29T00:44:00.900Z,-1.40
2023-03-29T00:47:09.189Z,-1.50
2023-03-29T00:50:26.000Z,-1.50
2023-03-29T00:53:38.210Z,-1.50
2023-03-29T00:56:51.201Z,-1.56
2023-03-29T01:00:01.794Z,-1.60
2023-03-29T01:03:14.645Z,-1.60
2023-03-29T01:06:29.484Z,-1.68
2023-03-29T01:09:43.045Z,-1.68
2023-03-29T01:12:56.739Z,-1.62
2023-03-29T01:16:07.463Z,-1.60
2023-03-29T01:19:21.704Z,-1.60
2023-03-29T01:22:40.971Z,-1.50
2023-03-29T01:26:01.962Z,-1.58
2023-03-29T01:29:16.735Z,-1.60
2023-03-29T01:32:31.289Z,-1.60
2023-03-29T01:35:46.775Z,-1.60
2023-03-29T01:39:05.331Z,-1.68
2023-03-29T01:42:31.150Z,-1.70
2023-03-29T01:45:47.685Z,-1.78
2023-03-29T01:49:01.805Z,-1.80
2023-03-29T01:52:17.413Z,-1.80
2023-03-29T01:55:32.764Z,-1.88
2023-03-29T01:58:47.223Z,-1.90
2023-03-29T02:02:00.866Z,-1.90
2023-03-29T02:05:12.854Z,-1.90
2023-03-29T02:08:23.632Z,-1.90
2023-03-29T02:11:32.253Z,-1.90
2023-03-29T02:14:40.589Z,-1.90
2023-03-29T02:17:49.605Z,-1.90
2023-03-29T02:21:00.370Z,-2.00
2023-03-29T02:24:15.585Z,-2.00
2023-03-29T02:27:24.375Z,-2.10
2023-03-29T02:30:42.108Z,-2.10
2023-03-29T02:33:55.952Z,-2.20
2023-03-29T02:37:10.508Z,-2.22
2023-03-29T02:40:21.192Z,-2.30
2023-03-29T02:43:31.221Z,-2.32
2023-03-29T02:46:39.941Z,-2.40
2023-03-29T02:49:48.898Z,-2.38
2023-03-29T02:53:03.129Z,-2.40
2023-03-29T02:56:12.798Z,-2.40
2023-03-29T02:59:22.867Z,-2.48
2023-03-29T03:02:31.128Z,-2.50
2023-03-29T03:05:39.375Z,-2.50
2023-03-29T03:08:47.930Z,-2.50
2023-03-29T03:11:56.275Z,-2.50
2023-03-29T03:15:04.235Z,-2.54
2023-03-29T03:18:12.979Z,-2.60
2023-03-29T03:21:21.248Z,-2.60
2023-03-29T03:24:29.323Z,-2.70
2023-03-29T03:27:37.396Z,-2.70
2023-03-29T03:30:45.921Z,-2.70
2023-03-29T03:33:54.628Z,-2.70
2023-03-29T03:37:02.902Z,-2.70
2023-03-29T03:40:14.130Z,-2.70
2023-03-29T03:43:22.313Z,-2.70
2023-03-29T03:46:30.405Z,-2.70
2023-03-29T03:49:38.472Z,-2.70
2023-03-29T03:52:46.914Z,-2.70
2023-03-29T03:55:56.394Z,-2.70
2023-03-29T03:59:05.358Z,-2.70
2023-03-29T04:02:13.365Z,-2.66
2023-03-29T04:05:21.340Z,-2.70
2023-03-29T04:08:30.424Z,-2.70
2023-03-29T04:11:38.712Z,-2.70
2023-03-29T04:14:47.701Z,-2.70
2023-03-29T04:17:55.682Z,-2.68
2023-03-29T04:21:04.519Z,-2.62
2023-03-29T04:24:13.050Z,-2.60
2023-03-29T04:27:21.822Z,-2.60
2023-03-29T04:30:29.934Z,-2.60
2023-03-29T04:33:38.020Z,-2.60
2023-03-29T04:36:46.478Z,-2.60
2023-03-29T04:39:55.195Z,-2.64
2023-03-29T04:43:03.243Z,-2.60
2023-03-29T04:46:11.406Z,-2.60
2023-03-29T04:49:19.635Z,-2.60
2023-03-29T04:52:27.736Z,-2.60
2023-03-29T04:55:36.093Z,-2.60
2023-03-29T04:58:44.839Z,-2.60
2023-03-29T05:01:52.948Z,-2.64
2023-03-29T05:05:01.421Z,-2.70
2023-03-29T05:08:12.770Z,-2.70
2023-03-29T05:11:21.434Z,-2.70
2023-03-29T05:14:29.585Z,-2.70
2023-03-29T05:17:37.834Z,-2.70
2023-03-29T05:20:46.112Z,-2.64
2023-03-29T05:23:54.672Z,-2.54
2023-03-29T05:27:02.690Z,-2.50
2023-03-29T05:30:15.385Z,-2.40
2023-03-29T05:33:23.815Z,-2.30
2023-03-29T05:36:32.407Z,-2.20
2023-03-29T05:39:40.709Z,-2.10
2023-03-29T05:42:49.272Z,-2.00
2023-03-29T05:45:59.483Z,-1.90
2023-03-29T05:49:08.806Z,-1.80
2023-03-29T05:52:17.294Z,-1.76
2023-03-29T05:55:25.356Z,-1.70
2023-03-29T05:58:33.265Z,-1.62
2023-03-29T06:01:41.943Z,-1.60
2023-03-29T06:04:50.063Z,-1.60
2023-03-29T06:07:59.052Z,-1.54
2023-03-29T06:11:11.450Z,-1.50
2023-03-29T06:14:19.593Z,-1.40
2023-03-29T06:17:28.228Z,-1.30
2023-03-29T06:20:37.190Z,-1.20
2023-03-29T06:23:45.706Z,-1.04
2023-03-29T06:26:54.174Z,-0.90
2023-03-29T06:30:03.112Z,-0.72
2023-03-29T06:33:11.649Z,-0.60
2023-03-29T06:36:20.512Z,-0.44
2023-03-29T06:39:28.693Z,-0.30
2023-03-29T06:42:37.204Z,-0.16
2023-03-29T06:45:45.350Z,0.00
2023-03-29T06:48:53.589Z,0.10
2023-03-29T06:52:01.858Z,0.18
2023-03-29T06:55:12.078Z,0.20
2023-03-29T06:58:20.649Z,0.20
2023-03-29T07:01:29.540Z,0.28
2023-03-29T07:04:37.702Z,0.30
2023-03-29T07:07:57.170Z,0.40
2023-03-29T07:11:05.537Z,0.46
2023-03-29T07:14:13.528Z,0.50
2023-03-29T07:17:22.968Z,0.60
2023-03-29T07:20:31.233Z,0.70
2023-03-29T07:23:40.071Z,0.70
2023-03-29T07:27:00.116Z,0.80
2023-03-29T07:30:17.974Z,0.90
2023-03-29T07:33:26.091Z,1.00
2023-03-29T07:36:34.868Z,1.10
2023-03-29T07:39:43.196Z,1.10
2023-03-29T07:42:52.681Z,1.20
2023-03-29T07:46:04.968Z,1.30
2023-03-29T07:49:12.988Z,1.40
2023-03-29T07:52:20.928Z,1.50
2023-03-29T07:55:28.955Z,1.68
2023-03-29T07:58:38.089Z,1.80
2023-03-29T08:01:47.027Z,2.00
2023-03-29T08:04:56.926Z,2.10
2023-03-29T08:08:03.312Z,2.20
2023-03-29T08:11:11.390Z,2.30
2023-03-29T08:14:19.140Z,2.30
2023-03-29T08:17:27.160Z,2.40
2023-03-29T08:20:35.369Z,2.58
2023-03-29T08:23:43.767Z,2.70
2023-03-29T08:26:52.198Z,2.70
2023-03-29T08:30:00.207Z,2.80
2023-03-29T08:33:08.173Z,2.90
2023-03-29T08:36:16.707Z,3.10
2023-03-29T08:39:24.985Z,3.30
2023-03-29T08:43:07.315Z,3.50
2023-03-29T08:46:35.106Z,3.62
2023-03-29T08:49:49.834Z,3.80
2023-03-29T08:53:02.843Z,3.90
2023-03-29T08:56:18.034Z,4.10
2023-03-29T08:59:32.101Z,4.24
2023-03-29T09:02:42.358Z,4.40
2023-03-29T09:05:54.706Z,4.60
2023-03-29T09:09:02.815Z,4.80
2023-03-29T09:12:31.828Z,4.90
2023-03-29T09:15:52.049Z,5.00
2023-03-29T09:19:14.885Z,5.20
2023-03-29T09:22:32.168Z,5.40
2023-03-29T09:25:55.498Z,5.60
2023-03-29T09:29:24.070Z,5.70
2023-03-29T09:32:42.346Z,5.90
2023-03-29T09:36:00.142Z,6.00
2023-03-29T09:39:10.892Z,6.00
2023-03-29T09:42:21.200Z,6.10
2023-03-29T09:45:29.109Z,6.30
2023-03-29T09:48:44.809Z,6.40
2023-03-29T09:51:55.838Z,6.58
2023-03-29T09:55:06.200Z,6.70
2023-03-29T09:58:22.076Z,6.90
2023-03-29T10:01:42.229Z,7.00
2023-03-29T10:04:58.897Z,7.12
2023-03-29T10:08:20.166Z,7.26
2023-03-29T10:11:35.706Z,7.44
2023-03-29T10:14:53.042Z,7.50
2023-03-29T10:18:10.947Z,7.50
2023-03-29T10:21:22.268Z,7.60
2023-03-29T10:24:31.206Z,7.80
2023-03-29T10:27:42.397Z,7.90
2023-03-29T10:30:57.525Z,8.10
2023-03-29T10:34:09.036Z,8.20
2023-03-29T10:37:19.679Z,8.40
2023-03-29T10:40:34.681Z,8.50
2023-03-29T10:43:49.733Z,8.70
2023-03-29T10:46:57.874Z,8.90
2023-03-29T10:50:16.581Z,9.00
2023-03-29T10:53:30.180Z,9.10
2023-03-29T10:56:46.924Z,9.10
2023-03-29T11:00:02.984Z,9.10
2023-03-29T11:03:35.454Z,9.20
2023-03-29T11:06:54.464Z,9.30
2023-03-29T11:10:26.100Z,9.30
2023-03-29T11:13:46.855Z,9.40
2023-03-29T11:17:17.724Z,9.50
2023-03-29T11:20:36.290Z,9.60
2023-03-29T11:23:56.810Z,9.50
2023-03-29T11:27:25.882Z,9.60
2023-03-29T11:30:41.336Z,9.60
2023-03-29T11:34:07.345Z,9.60
2023-03-29T11:37:24.079Z,9.60
2023-03-29T11:40:48.308Z,9.40
2023-03-29T11:44:04.672Z,9.30
2023-03-29T11:47:19.878Z,9.30
2023-03-29T11:50:36.124Z,9.36
2023-03-29T11:53:56.547Z,9.80
2023-03-29T11:57:13.552Z,10.10
2023-03-29T12:00:28.773Z,10.20
2023-03-29T12:03:47.176Z,10.20
2023-03-29T12:07:08.214Z,10.30
2023-03-29T12:10:25.049Z,10.40
2023-03-29T12:13:39.319Z,10.30
2023-03-29T12:16:54.877Z,10.40
2023-03-29T12:20:16.859Z,10.38
2023-03-29T12:23:25.119Z,10.40
2023-03-29T12:26:55.992Z,10.50
2023-03-29T12:30:40.115Z,10.50
2023-03-29T12:34:15.270Z,10.60
2023-03-29T12:37:37.423Z,10.74
2023-03-29T12:40:49.908Z,10.82
2023-03-29T12:44:04.745Z,11.00
2023-03-29T12:47:24.999Z,11.30
2023-03-29T12:50:42.819Z,11.30
2023-03-29T12:53:55.252Z,11.40
2023-03-29T12:57:20.540Z,11.62
2023-03-29T13:00:44.298Z,11.88
2023-03-29T13:03:57.497Z,11.80
2023-03-29T13:07:16.923Z,11.70
2023-03-29T13:10:53.322Z,11.70
2023-03-29T13:14:05.948Z,11.60
2023-03-29T13:17:26.451Z,11.50
2023-03-29T13:20:54.283Z,11.40
2023-03-29T13:24:17.368Z,11.40
2023-03-29T13:27:42.780Z,11.20
2023-03-29T13:31:01.909Z,11.20
2023-03-29T13:34:25.112Z,10.90
2023-03-29T13:37:49.088Z,10.60
2023-03-29T13:41:29.154Z,10.40
2023-03-29T13:44:49.329Z,10.12
2023-03-29T13:48:06.398Z,10.00
2023-03-29T13:51:34.932Z,10.00
2023-03-29T13:54:52.101Z,10.00
2023-03-29T13:58:05.798Z,10.00
2023-03-29T14:01:24.710Z,10.10
2023-03-29T14:04:40.152Z,10.10
2023-03-29T14:07:54.008Z,10.10
2023-03-29T14:11:08.376Z,10.10
2023-03-29T14:14:18.106Z,10.00
2023-03-29T14:17:28.383Z,10.10
2023-03-29T14:20:38.543Z,10.30
2023-03-29T14:23:55.875Z,10.50
2023-03-29T14:27:10.302Z,10.70
2023-03-29T14:30:30.777Z,10.80
2023-03-29T14:33:39.224Z,10.62
2023-03-29T14:36:50.184Z,10.48
2023-03-29T14:40:00.155Z,10.30
2023-03-29T14:43:11.680Z,10.10
2023-03-29T14:46:23.628Z,10.00
2023-03-29T14:49:33.389Z,9.90
2023-03-29T14:52:46.409Z,9.80
2023-03-29T14:55:56.706Z,9.74
2023-03-29T14:59:22.489Z,9.60
2023-03-29T15:02:33.022Z,9.50
2023-03-29T15:05:45.684Z,9.40
2023-03-29T15:09:05.166Z,9.30
2023-03-29T15:12:21.399Z,9.20
2023-03-29T15:15:31.968Z,9.20
2023-03-29T15:18:44.211Z,9.10
2023-03-29T15:21:54.612Z,9.10
2023-03-29T15:25:03.473Z,9.00
2023-03-29T15:28:33.797Z,9.00
2023-03-29T15:31:43.680Z,8.94
2023-03-29T15:35:01.590Z,8.90
2023-03-29T15:38:11.161Z,8.90
2023-03-29T15:41:19.539Z,8.80
2023-03-29T15:44:33.980Z,8.80
2023-03-29T15:47:42.359Z,8.80
2023-03-29T15:50:50.908Z,8.80
2023-03-29T15:53:58.858Z,8.72
2023-03-29T15:57:10.273Z,8.70
2023-03-29T16:00:23.081Z,8.62
2023-03-29T16:03:31.710Z,8.60
2023-03-29T16:06:40.027Z,8.60
2023-03-29T16:09:48.980Z,8.58
2023-03-29T16:12:56.907Z,8.50
2023-03-29T16:16:04.983Z,8.40
2023-03-29T16:19:13.054Z,8.40
2023-03-29T16:22:21.318Z,8.38
2023-03-29T16:25:30.939Z,8.30
2023-03-29T16:28:38.761Z,8.30
2023-03-29T16:31:47.085Z,8.20
2023-03-29T16:34:56.006Z,8.20
2023-03-29T16:38:04.040Z,8.10
2023-03-29T16:41:16.301Z,8.10
2023-03-29T16:44:28.014Z,8.04
2023-03-29T16:47:36.834Z,8.00
2023-03-29T16:50:45.355Z,7.96
2023-03-29T16:53:54.856Z,7.90
2023-03-29T16:57:02.962Z,7.90
2023-03-29T17:00:16.450Z,7.80
2023-03-29T17:03:24.990Z,7.80
2023-03-29T17:06:33.250Z,7.80
2023-03-29T17:09:41.276Z,7.70
2023-03-29T17:12:50.560Z,7.70
2023-03-29T17:15:59.250Z,7.70
2023-03-29T17:19:07.124Z,7.60
2023-03-29T17:22:15.378Z,7.60
2023-03-29T17:25:24.673Z,7.50
2023-03-29T17:28:33.917Z,7.50
2023-03-29T17:31:48.138Z,7.44
2023-03-29T17:34:59.374Z,7.40
2023-03-29T17:38:07.418Z,7.34
2023-03-29T17:41:16.192Z,7.30
2023-03-29T17:44:24.850Z,7.20
2023-03-29T17:47:37.491Z,7.20
2023-03-29T17:50:46.265Z,7.20
2023-03-29T17:53:57.264Z,7.10
2023-03-29T17:57:05.165Z,7.10
2023-03-29T18:00:17.920Z,7.04
2023-03-29T18:03:26.544Z,7.00
2023-03-29T18:06:34.740Z,6.98
2023-03-29T18:09:43.734Z,6.90
2023-03-29T18:12:52.878Z,6.90
2023-03-29T18:16:02.551Z,6.90
2023-03-29T18:19:11.540Z,6.88
2023-03-29T18:22:20.833Z,6.80
2023-03-29T18:25:29.526Z,6.80
2023-03-29T18:28:39.946Z,6.72
2023-03-29T18:31:49.152Z,6.70
2023-03-29T18:34:59.870Z,6.70
2023-03-29T18:38:09.442Z,6.70
2023-03-29T18:41:18.822Z,6.62
2023-03-29T18:44:27.402Z,6.60
2023-03-29T18:47:35.795Z,6.60
2023-03-29T18:50:46.642Z,6.60
2023-03-29T18:53:56.579Z,6.60
2023-03-29T18:57:06.413Z,6.50
2023-03-29T19:00:15.915Z,6.50
2023-03-29T19:03:24.563Z,6.50
2023-03-29T19:06:34.357Z,6.40
2023-03-29T19:09:43.485Z,6.40
2023-03-29T19:12:52.115Z,6.40
2023-03-29T19:16:01.003Z,6.32
2023-03-29T19:19:14.395Z,6.30
2023-03-29T19:22:23.589Z,6.30
2023-03-29T19:25:33.776Z,6.30
2023-03-29T19:28:42.522Z,6.20
2023-03-29T19:31:52.188Z,6.20
2023-03-29T19:35:04.446Z,6.20
2023-03-29T19:38:12.897Z,6.20
2023-03-29T19:41:23.528Z,6.20
2023-03-29T19:44:32.085Z,6.20
2023-03-29T19:47:42.374Z,6.18
2023-03-29T19:50:51.445Z,6.10
2023-03-29T19:53:59.732Z,6.10
2023-03-29T19:57:09.380Z,6.10
2023-03-29T20:00:24.585Z,6.10
2023-03-29T20:03:34.330Z,6.10
2023-03-29T20:06:40.893Z,6.10
2023-03-29T20:09:49.373Z,6.08
2023-03-29T20:12:58.021Z,6.00
2023-03-29T20:16:07.037Z,6.00
2023-03-29T20:19:17.935Z,6.00
2023-03-29T20:22:26.576Z,6.00
2023-03-29T20:25:37.996Z,5.90
2023-03-29T20:28:46.059Z,5.90
2023-03-29T20:31:54.406Z,5.90
2023-03-29T20:35:02.922Z,5.90
2023-03-29T20:38:11.946Z,5.90
2023-03-29T20:41:20.843Z,5.90
2023-03-29T20:44:29.297Z,5.90
2023-03-29T20:47:42.641Z,5.82
2023-03-29T20:50:52.086Z,5.80
2023-03-29T20:54:05.109Z,5.80
2023-03-29T20:57:15.929Z,5.80
2023-03-29T21:00:25.620Z,5.80
2023-03-29T21:03:35.329Z,5.80
2023-03-29T21:06:45.795Z,5.80
2023-03-29T21:09:54.458Z,5.80
2023-03-29T21:13:03.019Z,5.70
2023-03-29T21:16:13.253Z,5.70
2023-03-29T21:19:23.181Z,5.70
2023-03-29T21:22:33.703Z,5.70
2023-03-29T21:25:44.377Z,5.68
2023-03-29T21:28:53.349Z,5.66
2023-03-29T21:32:02.500Z,5.62
2023-03-29T21:35:13.335Z,5.60
2023-03-29T21:38:21.847Z,5.62
2023-03-29T21:41:29.984Z,5.60
2023-03-29T21:44:37.891Z,5.60
2023-03-29T21:47:46.233Z,5.60
2023-03-29T21:50:54.831Z,5.60
2023-03-29T21:54:02.896Z,5.60
2023-03-29T21:57:11.272Z,5.54
2023-03-29T22:00:21.599Z,5.50
2023-03-29T22:03:30.157Z,5.50
2023-03-29T22:06:38.083Z,5.50
2023-03-29T22:09:46.619Z,5.50
2023-03-29T22:12:55.158Z,5.44
2023-03-29T22:16:05.068Z,5.40
2023-03-29T22:19:12.486Z,5.40
2023-03-29T22:22:21.882Z,5.40
2023-03-29T22:25:29.954Z,5.38
2023-03-29T22:28:38.712Z,5.30
2023-03-29T22:31:46.898Z,5.30
2023-03-29T22:34:55.627Z,5.24
2023-03-29T22:38:04.460Z,5.20
2023-03-29T22:41:13.379Z,5.10
2023-03-29T22:44:21.679Z,5.00
2023-03-29T22:47:30.027Z,5.00
2023-03-29T22:50:37.941Z,5.00
2023-03-29T22:53:47.986Z,4.90
2023-03-29T22:56:56.014Z,4.90
2023-03-29T23:00:09.475Z,4.90
2023-03-29T23:03:18.016Z,4.86
2023-03-29T23:06:26.603Z,4.84
2023-03-29T23:09:35.265Z,4.82
2023-03-29T23:12:44.120Z,4.80
2023-03-29T23:15:54.637Z,4.80
2023-03-29T23:19:02.923Z,4.80
2023-03-29T23:22:11.792Z,4.80
2023-03-29T23:25:20.015Z,4.80
2023-03-29T23:28:31.909Z,4.80
2023-03-29T23:31:40.240Z,4.80
2023-03-29T23:34:48.306Z,4.80
2023-03-29T23:37:56.681Z,4.80
2023-03-29T23:41:08.681Z,4.80
2023-03-29T23:44:16.748Z,4.80
2023-03-29T23:47:25.565Z,4.80
2023-03-29T23:50:33.750Z,4.80
2023-03-29T23:53:42.054Z,4.80
2023-03-29T23:56:50.897Z,4.80
